createdAt,value
2023-05-24T00:00:35.769Z,100656.23
2023-05-24T00:03:04.897Z,100656.44
2023-05-24T00:05:33.173Z,100659.30
2023-05-24T00:08:00.919Z,100658.45
2023-05-24T00:10:28.480Z,100660.75
2023-05-24T00:12:56.044Z,100658.00
2023-05-24T00:15:23.914Z,100654.34
2023-05-24T00:17:51.824Z,100654.02
2023-05-24T00:20:20.860Z,100659.05
2023-05-24T00:22:48.693Z,100657.76
2023-05-24T00:25:16.290Z,100654.38
2023-05-24T00:27:43.829Z,100659.90
2023-05-24T00:30:11.821Z,100656.66
2023-05-24T00:32:39.497Z,100658.35
2023-05-24T00:35:07.383Z,100656.70
2023-05-24T00:37:35.001Z,100659.84
2023-05-24T00:40:02.533Z,100663.47
2023-05-24T00:42:30.130Z,100665.75
2023-05-24T00:44:57.657Z,100664.09
2023-05-24T00:47:25.635Z,100663.03
2023-05-24T00:49:53.231Z,100661.34
2023-05-24T00:52:21.122Z,100660.27
2023-05-24T00:54:49.807Z,100659.89
2023-05-24T00:57:19.068Z,100657.86
2023-05-24T00:59:46.715Z,100658.41
2023-05-24T01:02:14.506Z,100659.38
2023-05-24T01:04:42.254Z,100661.44
2023-05-24T01:07:21.400Z,100660.27
2023-05-24T01:10:01.040Z,100664.64
2023-05-24T01:12:53.955Z,100666.70
2023-05-24T01:15:30.906Z,100670.73
2023-05-24T01:18:06.225Z,100671.17
2023-05-24T01:20:34.671Z,100672.35
2023-05-24T01:23:21.280Z,100673.69
2023-05-24T01:25:50.059Z,100673.43
2023-05-24T01:28:18.299Z,100672.42
2023-05-24T01:30:46.054Z,100673.67
2023-05-24T01:33:13.987Z,100674.71
2023-05-24T01:35:42.834Z,100676.80
2023-05-24T01:38:13.361Z,100675.91
2023-05-24T01:40:42.110Z,100674.30
2023-05-24T01:43:17.178Z,100675.05
2023-05-24T01:45:53.372Z,100673.77
2023-05-24T01:48:49.021Z,100674.96
2023-05-24T01:51:18.705Z,100678.31
2023-05-24T01:53:47.741Z,100678.79
2023-05-24T01:56:17.289Z,100679.13
2023-05-24T01:58:45.660Z,100685.91
2023-05-24T02:01:14.482Z,100684.48
2023-05-24T02:03:42.168Z,100688.85
2023-05-24T02:06:10.942Z,100683.27
2023-05-24T02:08:40.668Z,100682.56
2023-05-24T02:11:08.212Z,100677.77
2023-05-24T02:13:35.878Z,100675.17
2023-05-24T02:16:05.273Z,100673.69
2023-05-24T02:18:35.080Z,100674.95
2023-05-24T02:21:03.344Z,100672.76
2023-05-24T02:23:31.001Z,100679.34
2023-05-24T02:26:00.387Z,100678.27
2023-05-24T02:28:30.154Z,100678.20
2023-05-24T02:30:58.103Z,100679.98
2023-05-24T02:33:25.832Z,100677.20
2023-05-24T02:35:53.360Z,100679.36
2023-05-24T02:38:21.296Z,100676.15
2023-05-24T02:40:48.896Z,100677.43
2023-05-24T02:43:16.452Z,100675.52
2023-05-24T02:45:44.210Z,100677.85
2023-05-24T02:48:11.761Z,100676.45
2023-05-24T02:50:39.430Z,100675.79
2023-05-24T02:53:07.090Z,100681.16
2023-05-24T02:55:34.643Z,100682.06
2023-05-24T02:58:03.179Z,100682.07
2023-05-24T03:00:31.511Z,100682.31
2023-05-24T03:03:03.739Z,100683.11
2023-05-24T03:05:32.691Z,100682.22
2023-05-24T03:08:00.262Z,100680.77
2023-05-24T03:10:28.019Z,100682.16
2023-05-24T03:12:55.599Z,100680.05
2023-05-24T03:15:23.623Z,100682.99
2023-05-24T03:17:52.983Z,100678.67
2023-05-24T03:20:21.357Z,100677.90
2023-05-24T03:22:49.066Z,100683.18
2023-05-24T03:25:17.008Z,100683.20
2023-05-24T03:27:45.242Z,100681.67
2023-05-24T03:30:13.675Z,100682.14
2023-05-24T03:32:48.596Z,100682.40
2023-05-24T03:35:16.302Z,100680.92
2023-05-24T03:37:44.036Z,100679.69
2023-05-24T03:40:12.043Z,100677.69
2023-05-24T03:43:00.712Z,100677.96
2023-05-24T03:45:54.767Z,100678.86
2023-05-24T03:48:22.404Z,100681.20
2023-05-24T03:50:51.727Z,100683.67
2023-05-24T03:53:21.614Z,100683.87
2023-05-24T03:55:50.697Z,100682.13
2023-05-24T03:58:18.312Z,100683.59
2023-05-24T04:00:46.026Z,100683.62
2023-05-24T04:03:15.018Z,100683.13
2023-05-24T04:05:42.678Z,100682.39
2023-05-24T04:08:10.973Z,100684.33
2023-05-24T04:10:39.097Z,100679.13
2023-05-24T04:13:06.970Z,100674.59
2023-05-24T04:15:38.137Z,100679.85
2023-05-24T04:18:06.163Z,100682.12
2023-05-24T04:20:35.278Z,100680.95
2023-05-24T04:23:03.094Z,100681.42
2023-05-24T04:25:31.024Z,100682.66
2023-05-24T04:27:58.620Z,100681.06
2023-05-24T04:30:26.247Z,100681.91
2023-05-24T04:32:54.071Z,100682.19
2023-05-24T04:35:21.799Z,100679.33
2023-05-24T04:37:50.503Z,100677.98
2023-05-24T04:40:21.046Z,100674.41
2023-05-24T04:42:49.179Z,100674.34
2023-05-24T04:45:17.043Z,100681.58
2023-05-24T04:47:44.907Z,100680.08
2023-05-24T04:50:12.541Z,100679.47
2023-05-24T04:52:40.126Z,100675.02
2023-05-24T04:55:08.034Z,100675.16
2023-05-24T04:57:35.682Z,100675.10
2023-05-24T05:00:04.873Z,100678.48
2023-05-24T05:02:33.235Z,100674.80
2023-05-24T05:05:01.156Z,100680.38
2023-05-24T05:07:28.896Z,100678.01
2023-05-24T05:09:57.103Z,100672.71
2023-05-24T05:12:24.897Z,100671.02
2023-05-24T05:14:52.815Z,100674.69
2023-05-24T05:17:20.596Z,100670.54
2023-05-24T05:19:48.354Z,100676.58
2023-05-24T05:22:16.807Z,100674.28
2023-05-24T05:24:44.399Z,100670.61
2023-05-24T05:27:11.957Z,100672.45
2023-05-24T05:29:39.571Z,100674.70
2023-05-24T05:32:07.340Z,100674.50
2023-05-24T05:34:35.035Z,100674.35
2023-05-24T05:37:05.007Z,100673.74
2023-05-24T05:39:32.585Z,100674.64
2023-05-24T05:42:01.316Z,100675.54
2023-05-24T05:44:29.009Z,100679.30
2023-05-24T05:46:56.836Z,100684.61
2023-05-24T05:49:24.698Z,100683.41
2023-05-24T05:51:53.283Z,100679.13
2023-05-24T05:54:20.875Z,100678.65
2023-05-24T05:56:48.583Z,100680.05
2023-05-24T05:59:16.228Z,100680.88
2023-05-24T06:01:44.493Z,100680.52
2023-05-24T06:04:13.227Z,100682.83
2023-05-24T06:06:40.957Z,100687.08
2023-05-24T06:09:08.783Z,100689.11
2023-05-24T06:11:36.375Z,100689.20
2023-05-24T06:14:03.994Z,100693.88
2023-05-24T06:16:32.812Z,100696.41
2023-05-24T06:19:05.958Z,100697.98
2023-05-24T06:21:36.792Z,100696.40
2023-05-24T06:24:04.886Z,100697.48
2023-05-24T06:26:32.462Z,100701.15
2023-05-24T06:29:00.084Z,100700.69
2023-05-24T06:31:27.710Z,100708.91
2023-05-24T06:34:03.936Z,100711.23
2023-05-24T06:36:36.194Z,100703.08
2023-05-24T06:39:05.210Z,100702.75
2023-05-24T06:41:32.798Z,100703.01
2023-05-24T06:44:00.477Z,100701.71
2023-05-24T06:46:28.177Z,100700.91
2023-05-24T06:48:55.915Z,100698.08
2023-05-24T06:51:23.894Z,100695.08
2023-05-24T06:53:51.612Z,100697.02
2023-05-24T06:56:19.307Z,100695.15
2023-05-24T06:58:47.068Z,100691.93
2023-05-24T07:01:15.540Z,100694.88
2023-05-24T07:03:43.175Z,100694.27
2023-05-24T07:06:14.265Z,100695.78
2023-05-24T07:08:42.238Z,100698.00
2023-05-24T07:11:10.265Z,100694.14
2023-05-24T07:13:37.914Z,100699.22
2023-05-24T07:16:06.700Z,100701.41
2023-05-24T07:18:34.275Z,100700.69
2023-05-24T07:21:01.848Z,100697.40
2023-05-24T07:23:29.571Z,100697.88
2023-05-24T07:25:57.445Z,100697.86
2023-05-24T07:28:25.079Z,100696.99
2023-05-24T07:30:52.962Z,100702.95
2023-05-24T07:33:20.783Z,100710.31
2023-05-24T07:35:51.678Z,100710.91
2023-05-24T07:38:19.313Z,100711.52
2023-05-24T07:40:46.995Z,100709.65
2023-05-24T07:43:14.599Z,100710.44
2023-05-24T07:45:42.589Z,100713.50
2023-05-24T07:48:10.434Z,100713.50
2023-05-24T07:50:38.736Z,100717.33
2023-05-24T07:53:06.502Z,100719.48
2023-05-24T07:55:34.348Z,100719.82
2023-05-24T07:58:02.067Z,100726.39
2023-05-24T08:00:30.132Z,100725.49
2023-05-24T08:02:57.875Z,100726.65
2023-05-24T08:05:25.855Z,100729.44
2023-05-24T08:07:53.754Z,100729.46
2023-05-24T08:10:22.096Z,100727.58
2023-05-24T08:12:51.721Z,100727.82
2023-05-24T08:15:19.496Z,100728.58
2023-05-24T08:17:47.151Z,100728.27
2023-05-24T08:20:15.740Z,100726.05
2023-05-24T08:22:43.629Z,100727.69
2023-05-24T08:25:14.088Z,100728.15
2023-05-24T08:27:42.014Z,100731.02
2023-05-24T08:30:11.262Z,100727.86
2023-05-24T08:32:39.607Z,100732.70
2023-05-24T08:35:19.434Z,100730.69
2023-05-24T08:37:49.548Z,100732.01
2023-05-24T08:40:17.942Z,100731.64
2023-05-24T08:42:46.711Z,100731.16
2023-05-24T08:45:15.447Z,100733.95
2023-05-24T08:47:43.265Z,100731.59
2023-05-24T08:50:11.183Z,100734.70
2023-05-24T08:52:39.835Z,100736.81
2023-05-24T08:55:07.962Z,100740.04
2023-05-24T08:57:39.617Z,100735.23
2023-05-24T09:00:10.377Z,100736.36
2023-05-24T09:02:42.656Z,100732.95
2023-05-24T09:05:11.767Z,100727.70
2023-05-24T09:07:39.400Z,100730.30
2023-05-24T09:10:08.427Z,100735.18
2023-05-24T09:12:39.058Z,100737.65
2023-05-24T09:15:08.394Z,100737.29
2023-05-24T09:17:37.028Z,100736.16
2023-05-24T09:20:10.385Z,100733.63
2023-05-24T09:22:41.080Z,100729.77
2023-05-24T09:25:10.048Z,100724.30
2023-05-24T09:27:38.813Z,100726.82
2023-05-24T09:30:11.102Z,100721.09
2023-05-24T09:32:39.077Z,100719.08
2023-05-24T09:35:12.726Z,100716.94
2023-05-24T09:37:40.580Z,100718.05
2023-05-24T09:40:18.418Z,100712.70
2023-05-24T09:42:46.591Z,100710.23
2023-05-24T09:45:14.378Z,100711.61
2023-05-24T09:47:42.750Z,100709.70
2023-05-24T09:50:14.904Z,100708.72
2023-05-24T09:52:42.849Z,100713.61
2023-05-24T09:55:18.228Z,100713.23
2023-05-24T09:57:53.619Z,100713.52
2023-05-24T10:00:23.504Z,100716.43
2023-05-24T10:03:02.701Z,100717.09
2023-05-24T10:05:30.635Z,100722.30
2023-05-24T10:07:58.850Z,100718.76
2023-05-24T10:10:30.552Z,100714.55
2023-05-24T10:12:58.850Z,100711.92
2023-05-24T10:15:27.205Z,100710.06
2023-05-24T10:17:55.508Z,100706.69
2023-05-24T10:20:24.082Z,100700.52
2023-05-24T10:23:04.210Z,100700.09
2023-05-24T10:25:33.270Z,100702.04
2023-05-24T10:28:03.537Z,100698.07
2023-05-24T10:30:43.000Z,100698.13
2023-05-24T10:33:12.815Z,100693.96
2023-05-24T10:35:40.988Z,100690.39
2023-05-24T10:38:08.698Z,100686.96
2023-05-24T10:40:41.193Z,100687.27
2023-05-24T10:43:08.844Z,100689.27
2023-05-24T10:45:40.613Z,100689.90
2023-05-24T10:48:15.700Z,100693.32
2023-05-24T10:50:44.093Z,100696.09
2023-05-24T10:53:19.216Z,100702.78
2023-05-24T10:56:00.195Z,100704.96
2023-05-24T10:58:43.870Z,100704.85
2023-05-24T11:01:23.840Z,100704.67
2023-05-24T11:03:51.829Z,100706.88
2023-05-24T11:06:19.893Z,100703.16
2023-05-24T11:08:47.492Z,100707.66
2023-05-24T11:11:25.855Z,100711.74
2023-05-24T11:13:58.879Z,100702.58
2023-05-24T11:16:40.006Z,100702.61
2023-05-24T11:19:35.386Z,100697.55
2023-05-24T11:22:04.989Z,100695.46
2023-05-24T11:24:32.769Z,100695.96
2023-05-24T11:27:02.285Z,100692.67
2023-05-24T11:29:30.479Z,100687.84
2023-05-24T11:32:05.353Z,100683.69
2023-05-24T11:34:33.916Z,100683.23
2023-05-24T11:37:02.182Z,100680.34
2023-05-24T11:39:34.717Z,100680.01
2023-05-24T11:42:04.977Z,100674.34
2023-05-24T11:44:32.831Z,100676.73
2023-05-24T11:47:06.387Z,100679.98
2023-05-24T11:49:33.997Z,100681.68
2023-05-24T11:52:01.891Z,100685.58
2023-05-24T11:54:30.278Z,100685.70
2023-05-24T11:56:58.103Z,100680.30
2023-05-24T11:59:32.260Z,100669.39
2023-05-24T12:02:05.991Z,100663.90
2023-05-24T12:04:34.811Z,100660.94
2023-05-24T12:07:03.491Z,100656.83
2023-05-24T12:09:31.266Z,100655.58
2023-05-24T12:11:59.149Z,100648.66
2023-05-24T12:14:33.754Z,100650.35
2023-05-24T12:17:02.464Z,100642.95
2023-05-24T12:19:34.103Z,100645.80
2023-05-24T12:22:06.794Z,100642.06
2023-05-24T12:24:35.442Z,100645.70
2023-05-24T12:27:07.012Z,100658.71
2023-05-24T12:29:40.112Z,100662.95
2023-05-24T12:32:13.610Z,100660.36
2023-05-24T12:34:43.010Z,100660.69
2023-05-24T12:37:14.669Z,100659.05
2023-05-24T12:39:44.169Z,100653.15
2023-05-24T12:42:13.733Z,100649.46
2023-05-24T12:44:42.122Z,100649.48
2023-05-24T12:47:10.219Z,100647.72
2023-05-24T12:49:37.953Z,100650.19
2023-05-24T12:52:06.842Z,100657.02
2023-05-24T12:54:34.673Z,100655.36
2023-05-24T12:57:05.369Z,100663.77
2023-05-24T12:59:33.665Z,100665.30
2023-05-24T13:02:02.059Z,100663.61
2023-05-24T13:04:31.983Z,100666.30
2023-05-24T13:07:00.527Z,100668.00
2023-05-24T13:09:28.332Z,100667.63
2023-05-24T13:11:56.001Z,100670.42
2023-05-24T13:14:23.637Z,100670.33
2023-05-24T13:16:51.461Z,100664.02
2023-05-24T13:19:19.325Z,100655.59
2023-05-24T13:21:46.970Z,100649.29
2023-05-24T13:24:16.207Z,100648.86
2023-05-24T13:26:44.996Z,100651.26
2023-05-24T13:31:44.052Z,100664.16
2023-05-24T13:34:12.106Z,100666.73
2023-05-24T13:36:39.964Z,100668.92
2023-05-24T13:41:41.682Z,100666.80
2023-05-24T13:44:10.335Z,100668.28
2023-05-24T13:46:38.961Z,100664.19
2023-05-24T13:49:07.289Z,100659.20
2023-05-24T13:51:35.208Z,100650.14
2023-05-24T13:54:03.497Z,100645.95
2023-05-24T13:56:33.212Z,100649.48
2023-05-24T13:59:02.545Z,100651.99
2023-05-24T14:01:30.754Z,100648.02
2023-05-24T14:03:58.623Z,100649.35
2023-05-24T14:06:26.417Z,100645.29
2023-05-24T14:08:54.252Z,100646.30
2023-05-24T14:11:22.835Z,100646.66
2023-05-24T14:16:21.652Z,100640.81
2023-05-24T14:18:51.871Z,100636.67
2023-05-24T14:21:19.967Z,100634.27
2023-05-24T14:23:47.960Z,100636.48
2023-05-24T14:26:15.740Z,100637.29
2023-05-24T14:28:43.548Z,100637.91
2023-05-24T14:31:11.402Z,100632.94
2023-05-24T14:33:39.295Z,100629.94
2023-05-24T14:36:07.289Z,100630.77
2023-05-24T14:38:34.831Z,100623.77
2023-05-24T14:41:02.707Z,100621.31
2023-05-24T14:43:30.562Z,100619.08
2023-05-24T14:45:58.331Z,100616.98
2023-05-24T14:48:26.207Z,100619.98
2023-05-24T14:50:53.843Z,100621.36
2023-05-24T14:53:21.454Z,100619.46
2023-05-24T14:55:49.181Z,100619.43
2023-05-24T14:58:16.785Z,100618.64
2023-05-24T15:00:45.302Z,100617.40
2023-05-24T15:03:14.928Z,100619.55
2023-05-24T15:05:43.207Z,100626.05
2023-05-24T15:08:14.114Z,100631.73
2023-05-24T15:10:44.941Z,100636.95
2023-05-24T15:13:13.481Z,100637.58
2023-05-24T15:15:42.273Z,100640.88
2023-05-24T15:18:10.499Z,100642.75
2023-05-24T15:20:38.171Z,100639.56
2023-05-24T15:23:06.527Z,100641.80
2023-05-24T15:25:34.248Z,100639.17
2023-05-24T15:28:02.237Z,100641.54
2023-05-24T15:30:29.952Z,100644.41
2023-05-24T15:32:57.687Z,100649.61
2023-05-24T15:35:25.308Z,100656.65
2023-05-24T15:37:52.946Z,100655.15
2023-05-24T15:40:23.917Z,100659.14
2023-05-24T15:42:53.084Z,100658.45
2023-05-24T15:45:21.512Z,100653.68
2023-05-24T15:47:49.366Z,100654.95
2023-05-24T15:50:17.071Z,100660.42
2023-05-24T15:52:44.755Z,100658.36
2023-05-24T15:55:12.390Z,100662.23
2023-05-24T15:57:39.973Z,100658.08
2023-05-24T16:00:08.243Z,100659.23
2023-05-24T16:02:42.046Z,100658.52
2023-05-24T16:05:10.009Z,100663.17
2023-05-24T16:07:38.343Z,100662.42
2023-05-24T16:10:06.733Z,100655.16
2023-05-24T16:12:34.286Z,100655.57
2023-05-24T16:15:02.053Z,100662.98
2023-05-24T16:17:30.262Z,100666.00
2023-05-24T16:19:59.738Z,100661.20
2023-05-24T16:22:27.498Z,100664.70
2023-05-24T16:24:55.072Z,100658.23
2023-05-24T16:27:22.648Z,100656.89
2023-05-24T16:29:50.252Z,100658.58
2023-05-24T16:32:17.935Z,100656.91
2023-05-24T16:37:20.421Z,100650.36
2023-05-24T16:39:47.991Z,100653.98
2023-05-24T16:42:15.681Z,100652.92
2023-05-24T16:44:43.307Z,100650.91
2023-05-24T16:47:11.078Z,100643.64
2023-05-24T16:49:38.802Z,100648.52
2023-05-24T16:52:07.066Z,100647.19
2023-05-24T16:54:34.750Z,100654.77
2023-05-24T16:57:02.854Z,100657.75
2023-05-24T16:59:30.635Z,100663.45
2023-05-24T17:01:58.332Z,100671.48
2023-05-24T17:04:26.225Z,100671.20
2023-05-24T17:06:53.811Z,100675.56
2023-05-24T17:09:21.646Z,100675.43
2023-05-24T17:11:50.819Z,100677.52
2023-05-24T17:14:18.993Z,100684.18
2023-05-24T17:16:46.632Z,100684.48
2023-05-24T17:19:14.452Z,100688.79
2023-05-24T17:21:42.274Z,100699.33
2023-05-24T17:24:10.980Z,100694.80
2023-05-24T17:26:42.654Z,100693.93
2023-05-24T17:29:10.706Z,100701.27
2023-05-24T17:31:39.140Z,100698.27
2023-05-24T17:34:07.647Z,100699.62
2023-05-24T17:36:36.799Z,100706.89
2023-05-24T17:39:05.363Z,100707.09
2023-05-24T17:41:34.178Z,100708.02
2023-05-24T17:44:02.887Z,100712.70
2023-05-24T17:46:35.010Z,100719.69
2023-05-24T17:49:04.746Z,100722.80
2023-05-24T17:51:34.042Z,100724.57
2023-05-24T17:54:01.848Z,100724.64
2023-05-24T17:56:30.550Z,100721.58
2023-05-24T17:58:58.686Z,100723.77
2023-05-24T18:01:28.095Z,100723.56
2023-05-24T18:03:55.824Z,100729.02
2023-05-24T18:06:23.466Z,100731.09
2023-05-24T18:08:51.173Z,100729.16
2023-05-24T18:11:19.054Z,100729.79
2023-05-24T18:13:47.325Z,100730.08
2023-05-24T18:16:15.294Z,100736.92
2023-05-24T18:18:44.269Z,100734.98
2023-05-24T18:21:13.321Z,100736.80
2023-05-24T18:23:42.647Z,100738.72
2023-05-24T18:26:11.502Z,100739.51
2023-05-24T18:28:39.461Z,100741.19
2023-05-24T18:31:14.981Z,100751.16
2023-05-24T18:33:43.386Z,100761.95
2023-05-24T18:36:12.923Z,100758.89
2023-05-24T18:38:41.187Z,100764.73
2023-05-24T18:41:10.337Z,100760.82
2023-05-24T18:43:40.707Z,100764.55
2023-05-24T18:46:13.389Z,100766.33
2023-05-24T18:48:44.276Z,100762.86
2023-05-24T18:51:12.026Z,100765.15
2023-05-24T18:53:40.873Z,100765.10
2023-05-24T18:56:08.557Z,100763.24
2023-05-24T18:58:36.146Z,100767.73
2023-05-24T19:01:04.145Z,100770.60
2023-05-24T19:03:31.947Z,100770.77
2023-05-24T19:05:59.665Z,100775.98
2023-05-24T19:08:27.396Z,100778.77
2023-05-24T19:10:55.015Z,100782.09
2023-05-24T19:13:22.844Z,100783.02
2023-05-24T19:15:50.634Z,100787.92
2023-05-24T19:18:18.202Z,100789.89
2023-05-24T19:20:45.804Z,100785.56
2023-05-24T19:23:13.434Z,100785.45
2023-05-24T19:25:42.357Z,100786.95
2023-05-24T19:28:10.908Z,100787.65
2023-05-24T19:30:38.460Z,100787.60
2023-05-24T19:33:07.439Z,100786.15
2023-05-24T19:35:35.202Z,100787.00
2023-05-24T19:38:02.896Z,100788.39
2023-05-24T19:40:30.591Z,100790.77
2023-05-24T19:42:58.160Z,100794.29
2023-05-24T19:45:25.938Z,100790.27
2023-05-24T19:47:53.606Z,100794.86
2023-05-24T19:50:21.360Z,100792.82
2023-05-24T19:52:48.964Z,100790.95
2023-05-24T19:55:16.765Z,100788.82
2023-05-24T19:57:44.353Z,100790.73
2023-05-24T20:00:14.050Z,100787.12
2023-05-24T20:02:41.747Z,100784.04
2023-05-24T20:05:11.689Z,100784.97
2023-05-24T20:07:40.690Z,100788.41
2023-05-24T20:10:09.857Z,100784.02
2023-05-24T20:12:37.476Z,100778.38
2023-05-24T20:15:08.243Z,100777.24
2023-05-24T20:17:35.736Z,100776.08
2023-05-24T20:20:05.460Z,100774.59
2023-05-24T20:22:33.132Z,100778.55
2023-05-24T20:25:00.899Z,100774.43
2023-05-24T20:27:28.577Z,100772.59
2023-05-24T20:29:56.292Z,100766.08
2023-05-24T20:32:24.032Z,100758.92
2023-05-24T20:34:51.691Z,100762.86
2023-05-24T20:37:19.474Z,100765.33
2023-05-24T20:39:47.176Z,100763.36
2023-05-24T20:42:15.619Z,100759.92
2023-05-24T20:44:43.550Z,100758.20
2023-05-24T20:47:11.123Z,100758.30
2023-05-24T20:49:38.746Z,100763.58
2023-05-24T20:52:07.088Z,100760.66
2023-05-24T20:54:34.653Z,100764.41
2023-05-24T20:57:02.923Z,100760.41
2023-05-24T20:59:31.078Z,100758.47
2023-05-24T21:01:58.867Z,100759.53
2023-05-24T21:04:27.300Z,100761.95
2023-05-24T21:06:55.985Z,100763.05
2023-05-24T21:09:23.756Z,100762.61
2023-05-24T21:11:51.334Z,100766.45
2023-05-24T21:14:18.950Z,100765.91
2023-05-24T21:16:46.685Z,100767.42
2023-05-24T21:19:14.257Z,100766.42
2023-05-24T21:21:41.840Z,100766.70
2023-05-24T21:24:09.491Z,100764.75
2023-05-24T21:26:37.058Z,100759.65
2023-05-24T21:29:04.820Z,100760.17
2023-05-24T21:31:35.902Z,100761.16
2023-05-24T21:34:03.831Z,100761.83
2023-05-24T21:36:31.905Z,100763.48
2023-05-24T21:38:59.503Z,100767.29
2023-05-24T21:41:27.645Z,100765.11
2023-05-24T21:43:55.185Z,100765.05
2023-05-24T21:46:22.937Z,100765.55
2023-05-24T21:48:50.589Z,100769.34
2023-05-24T21:51:18.233Z,100769.70
2023-05-24T21:53:46.326Z,100775.64
2023-05-24T21:56:14.137Z,100774.08
2023-05-24T21:58:41.803Z,100770.14
2023-05-24T22:01:09.699Z,100779.79
2023-05-24T22:03:37.904Z,100778.78
2023-05-24T22:06:05.669Z,100781.07
2023-05-24T22:08:33.257Z,100781.00
2023-05-24T22:11:00.816Z,100777.35
2023-05-24T22:13:28.524Z,100777.38
2023-05-24T22:15:56.078Z,100776.86
2023-05-24T22:18:28.556Z,100777.31
2023-05-24T22:20:58.443Z,100772.32
2023-05-24T22:23:26.351Z,100771.08
2023-05-24T22:25:53.992Z,100766.95
2023-05-24T22:28:21.599Z,100762.52
2023-05-24T22:30:49.275Z,100762.63
2023-05-24T22:33:17.052Z,100763.27
2023-05-24T22:35:44.882Z,100761.27
2023-05-24T22:38:12.782Z,100759.92
2023-05-24T22:40:42.390Z,100763.29
2023-05-24T22:43:10.055Z,100756.74
2023-05-24T22:45:37.729Z,100762.84
2023-05-24T22:48:05.768Z,100765.09
2023-05-24T22:50:33.771Z,100758.61
2023-05-24T22:53:01.409Z,100755.92
2023-05-24T22:55:29.050Z,100759.03
2023-05-24T22:57:56.654Z,100764.41
2023-05-24T23:00:24.392Z,100765.70
2023-05-24T23:02:51.944Z,100764.91
2023-05-24T23:05:21.788Z,100773.73
2023-05-24T23:07:49.624Z,100777.27
2023-05-24T23:10:17.257Z,100780.98
2023-05-24T23:12:44.859Z,100779.80
2023-05-24T23:15:16.932Z,100781.55
2023-05-24T23:17:44.698Z,100774.79
2023-05-24T23:20:14.603Z,100775.67
2023-05-24T23:22:42.306Z,100772.95
2023-05-24T23:25:10.485Z,100770.18
2023-05-24T23:27:38.140Z,100770.85
2023-05-24T23:30:06.977Z,100768.90
2023-05-24T23:32:34.824Z,100768.39
2023-05-24T23:35:02.378Z,100765.02
2023-05-24T23:37:30.091Z,100770.31
2023-05-24T23:40:02.421Z,100770.67
2023-05-24T23:42:29.984Z,100770.17
2023-05-24T23:44:57.622Z,100778.00
2023-05-24T23:47:25.221Z,100788.80
2023-05-24T23:49:53.379Z,100792.59
2023-05-24T23:52:21.240Z,100794.20
2023-05-24T23:54:48.809Z,100796.89
2023-05-24T23:57:17.632Z,100800.85
2023-05-24T23:59:45.158Z,100801.02
